WetterOnline ( http://www.wetteronline.de )

Wetter aktuell Friedberg

Aktuelles Wetter: Offenbach (119m)

6-stündlich | Neueste Meldungen
Ortszeit Temperatur Wetter
So, 20.05. 20:00 19.2° C wolkig
So, 20.05. 14:00 21.4° C bewölkt
So, 20.05. 8:00 13.3° C wolkig
So, 20.05. 2:00 12.0° C bedeckt
Sa, 19.05. 20:00 17.9° C wolkenlos
Sa, 19.05. 14:00 16.8° C bedeckt
Sa, 19.05. 8:00 9.6° C bedeckt
Sa, 19.05. 2:00 8.3° C bedeckt
Ortszeit Temperatur Wetter
So, 20.05. 21:30 19.3° C wolkig
So, 20.05. 21:20 19.3° C wolkig
So, 20.05. 21:10 19.1° C wolkig
So, 20.05. 21:00 17.8° C bewölkt
So, 20.05. 20:50 17.8° C bewölkt
So, 20.05. 20:40 17.9° C bewölkt
So, 20.05. 20:30 18.1° C bewölkt
So, 20.05. 20:00 19.2° C wolkig
So, 20.05. 19:30 20.6° C bewölkt
So, 20.05. 19:00 20.4° C wolkig
So, 20.05. 18:30 20.3° C bewölkt
Ortszeit Relative Feuchte Sichtweite
So, 20.05. 20:00 67% 30 km
So, 20.05. 14:00 47% 40 km
So, 20.05. 8:00 72% 12 km
So, 20.05. 2:00 77% 18 km
Sa, 19.05. 20:00 50% 30 km
Sa, 19.05. 14:00 50% 30 km
Sa, 19.05. 8:00 84% 12 km
Sa, 19.05. 2:00 97% 7 km
Ortszeit Relative Feuchte Sichtweite
So, 20.05. 21:30 58% 45 km
So, 20.05. 21:20 58% -
So, 20.05. 21:10 61% -
So, 20.05. 21:00 76% 27 km
So, 20.05. 20:50 76% -
So, 20.05. 20:40 76% -
So, 20.05. 20:30 73% 30 km
So, 20.05. 20:00 67% 30 km
So, 20.05. 19:30 55% 40 km
So, 20.05. 19:00 54% 30 km
So, 20.05. 18:30 57% 35 km
Ortszeit Niederschlagsmenge Niederschlagsart
So, 20.05. 20:00 0.1 l/m2 in 12 Std. Regen
So, 20.05. 14:00 0.0 l/m2 in 6 Std. -
So, 20.05. 8:00 0.0 l/m2 in 12 Std. -
So, 20.05. 2:00 0.0 l/m2 in 6 Std. -
Sa, 19.05. 20:00 0.0 l/m2 in 12 Std. -
Sa, 19.05. 14:00 0.0 l/m2 in 6 Std. -
Sa, 19.05. 8:00 0.0 l/m2 in 12 Std. -
Sa, 19.05. 2:00 0.0 l/m2 in 6 Std. -
Ortszeit Niederschlagsmenge Niederschlagsart
So, 20.05. 21:30 0.0 l/m2 in 1 Std. -
So, 20.05. 21:20 keine Meldung -
So, 20.05. 21:10 keine Meldung -
So, 20.05. 21:00 0.0 l/m2 in 1 Std. -
So, 20.05. 20:50 keine Meldung -
So, 20.05. 20:40 keine Meldung -
So, 20.05. 20:30 0.0 l/m2 in 1 Std. -
So, 20.05. 20:00 0.0 l/m2 in 1 Std. Regen
So, 20.05. 19:30 0.0 l/m2 in 1 Std. -
So, 20.05. 19:00 0.0 l/m2 in 1 Std. -
So, 20.05. 18:30 0.0 l/m2 in 1 Std. -
Ortszeit Stärke Spitze Richtung
km/h Bft. km/h Grad Sektor
So, 20.05. 20:00 4 1 29 10° N
So, 20.05. 14:00 14 3 29 70° O
So, 20.05. 8:00 7 2 18 30° NO
So, 20.05. 2:00 6 1 19 20° N
Sa, 19.05. 20:00 14 3 29 360° N
Sa, 19.05. 14:00 11 2 25 50° NO
Sa, 19.05. 8:00 7 2 18 30° NO
Sa, 19.05. 2:00 0 0 14 - -
Ortszeit Stärke Spitze Richtung
km/h Bft. km/h Grad Sektor
So, 20.05. 21:30 11 2 14 40° NO
So, 20.05. 21:20 11 2 - 40° NO
So, 20.05. 21:10 7 2 - 40° NO
So, 20.05. 21:00 0 0 4 - -
So, 20.05. 20:50 0 0 - 100° O
So, 20.05. 20:40 0 0 - 200° S
So, 20.05. 20:30 2 1 4 190° S
So, 20.05. 20:00 4 1 11 10° N
So, 20.05. 19:30 6 1 11 310° NW
So, 20.05. 19:00 7 2 18 310° NW
So, 20.05. 18:30 7 2 19 270° W
Ortszeit Untergrenze Bedeckung Gattung
total tief tief mittel hoch
So, 20.05. 20:00 2400 m 8/8 3/8 - - -
So, 20.05. 14:00 2400 m 8/8 4/8 - - -
So, 20.05. 8:00 4800 m 7/8 7/8 - - -
So, 20.05. 2:00 5100 m 8/8 8/8 - - -
Sa, 19.05. 20:00 - 0/8 0/8 - - -
Sa, 19.05. 14:00 4800 m 8/8 8/8 - - -
Sa, 19.05. 8:00 5100 m 8/8 8/8 - - -
Sa, 19.05. 2:00 6000 m 8/8 8/8 - - -
Ortszeit Bedeckungsgrad in Achtel und Wolkenuntergrenze
So, 20.05. 21:30 1(2400m) 7(3000m) 8(3600m)
So, 20.05. 21:20 1(2400m) 7(3000m) 8(3600m)
So, 20.05. 21:10 2(2400m) 8(3300m)
So, 20.05. 21:00 7(2400m) 8(3600m) 8(7200m)
So, 20.05. 20:50 7(2400m) 8(3600m) 8(7200m)
So, 20.05. 20:40 7(2400m) 8(3600m) 8(6300m)
So, 20.05. 20:30 4(2400m) 7(6000m) 8(7200m)
So, 20.05. 20:00 3(2400m) 8(5700m) 8(7200m)
So, 20.05. 19:30 5(2400m) 8(3300m) 8(4200m)
So, 20.05. 19:00 2(2400m) 8(3000m) 8(3900m)
So, 20.05. 18:30 7(3000m) 8(7200m)
Ortszeit Luftdruck NN (hPa) Tendenz (hPa in 3 Std.)
So, 20.05. 20:00 1018 - 1,2
So, 20.05. 14:00 1020 - 1,1
So, 20.05. 8:00 1022 + 0,6
So, 20.05. 2:00 1022 + 0,4
Sa, 19.05. 20:00 1020 - 0,1
Sa, 19.05. 14:00 1021 - 0,6
Sa, 19.05. 8:00 1022 + 0,8
Sa, 19.05. 2:00 1022 + 0,3
Ortszeit Luftdruck NN (hPa) Tendenz (hPa in 3 Std.)
So, 20.05. 21:30 1018 - 0,2
So, 20.05. 21:20 1018 keine Meldung
So, 20.05. 21:10 1018 keine Meldung
So, 20.05. 21:00 1018 - 0,7
So, 20.05. 20:50 1018 keine Meldung
So, 20.05. 20:40 1018 keine Meldung
So, 20.05. 20:30 1018 - 1,1
So, 20.05. 20:00 1018 - 1,2
So, 20.05. 19:30 1018 - 1,4
So, 20.05. 19:00 1018 - 1,7
So, 20.05. 18:30 1018 - 1,7
Ortszeit Schneehöhe (cm)
So, 20.05. 20:00 -
So, 20.05. 14:00 -
So, 20.05. 8:00 -
So, 20.05. 2:00 -
Sa, 19.05. 20:00 -
Sa, 19.05. 14:00 -
Sa, 19.05. 8:00 -
Sa, 19.05. 2:00 -
Ortszeit Schneehöhe (cm)
So, 20.05. 21:30 -
So, 20.05. 21:20 -
So, 20.05. 21:10 -
So, 20.05. 21:00 -
So, 20.05. 20:50 -
So, 20.05. 20:40 -
So, 20.05. 20:30 -
So, 20.05. 20:00 -
So, 20.05. 19:30 -
So, 20.05. 19:00 -
So, 20.05. 18:30 -
Link zu dieser Seite / Seite empfehlen

Das Wetter in ...